createdAt,value
2023-04-05T00:02:07.815Z,60.89
2023-04-05T00:04:54.987Z,61.38
2023-04-05T00:07:42.398Z,61.14
2023-04-05T00:10:29.832Z,60.90
2023-04-05T00:13:17.630Z,61.44
2023-04-05T00:16:04.575Z,60.93
2023-04-05T00:18:51.588Z,60.77
2023-04-05T00:21:39.470Z,60.97
2023-04-05T00:24:27.162Z,61.48
2023-04-05T00:27:14.166Z,61.95
2023-04-05T00:30:01.264Z,61.84
2023-04-05T00:32:48.346Z,60.96
2023-04-05T00:35:35.288Z,61.46
2023-04-05T00:38:22.415Z,61.64
2023-04-05T00:41:09.369Z,61.11
2023-04-05T00:43:56.383Z,61.70
2023-04-05T00:46:43.410Z,61.12
2023-04-05T00:49:31.060Z,61.05
2023-04-05T00:52:18.418Z,61.40
2023-04-05T00:55:05.836Z,60.92
2023-04-05T00:57:53.205Z,62.01
2023-04-05T01:00:41.000Z,60.98
2023-04-05T01:03:30.033Z,61.67
2023-04-05T01:07:09.516Z,61.22
2023-04-05T01:10:15.363Z,61.69
2023-04-05T01:13:03.285Z,61.68
2023-04-05T01:15:50.650Z,61.38
2023-04-05T01:18:38.627Z,61.07
2023-04-05T01:21:59.359Z,62.05
2023-04-05T01:25:11.241Z,61.52
2023-04-05T01:28:13.829Z,61.28
2023-04-05T01:31:04.459Z,61.52
2023-04-05T01:33:58.398Z,62.11
2023-04-05T01:36:51.607Z,62.06
2023-04-05T01:39:41.209Z,61.86
2023-04-05T01:42:28.322Z,61.12
2023-04-05T01:45:16.617Z,62.19
2023-04-05T01:48:03.661Z,61.98
2023-04-05T01:50:50.500Z,61.95
2023-04-05T01:53:38.708Z,61.85
2023-04-05T01:56:27.315Z,62.49
2023-04-05T01:59:14.956Z,62.34
2023-04-05T02:02:01.871Z,61.73
2023-04-05T02:04:48.885Z,62.04
2023-04-05T02:07:35.666Z,61.92
2023-04-05T02:10:23.110Z,61.50
2023-04-05T02:13:10.105Z,61.71
2023-04-05T02:15:57.886Z,61.81
2023-04-05T02:18:44.915Z,61.48
2023-04-05T02:21:32.061Z,61.77
2023-04-05T02:24:19.006Z,62.23
2023-04-05T02:27:05.958Z,62.70
2023-04-05T02:29:53.127Z,62.61
2023-04-05T02:32:40.232Z,61.54
2023-04-05T02:35:27.874Z,61.92
2023-04-05T02:38:14.852Z,62.70
2023-04-05T02:41:01.969Z,62.67
2023-04-05T02:43:49.565Z,62.19
2023-04-05T02:46:36.647Z,62.37
2023-04-05T02:49:24.307Z,61.34
2023-04-05T02:52:11.488Z,61.58
2023-04-05T02:54:58.395Z,62.36
2023-04-05T02:57:49.738Z,62.38
2023-04-05T03:00:50.039Z,61.88
2023-04-05T03:03:43.241Z,61.36
2023-04-05T03:06:30.370Z,61.81
2023-04-05T03:09:18.378Z,61.37
2023-04-05T03:12:08.249Z,62.43
2023-04-05T03:14:59.514Z,61.95
2023-04-05T03:17:49.680Z,62.85
2023-04-05T03:20:37.233Z,61.46
2023-04-05T03:23:25.066Z,62.68
2023-04-05T03:26:19.504Z,61.75
2023-04-05T03:29:10.883Z,62.02
2023-04-05T03:31:58.880Z,62.88
2023-04-05T03:34:48.694Z,62.70
2023-04-05T03:37:37.373Z,62.70
2023-04-05T03:40:28.299Z,61.92
2023-04-05T03:43:15.242Z,61.50
2023-04-05T03:46:02.134Z,62.96
2023-04-05T03:48:50.286Z,61.86
2023-04-05T03:51:37.303Z,63.01
2023-04-05T03:54:24.357Z,62.91
2023-04-05T03:57:16.629Z,62.15
2023-04-05T04:00:04.988Z,62.53
2023-04-05T04:03:06.381Z,62.78
2023-04-05T04:05:55.127Z,62.53
2023-04-05T04:08:42.493Z,62.55
2023-04-05T04:11:29.482Z,62.60
2023-04-05T04:14:16.806Z,62.41
2023-04-05T04:17:26.800Z,61.89
2023-04-05T04:20:36.947Z,63.10
2023-04-05T04:23:43.779Z,61.91
2023-04-05T04:26:53.948Z,62.48
2023-04-05T04:29:59.507Z,62.88
2023-04-05T04:33:08.959Z,62.58
2023-04-05T04:36:04.233Z,63.20
2023-04-05T04:39:13.869Z,62.02
2023-04-05T04:42:28.411Z,63.45
2023-04-05T04:45:40.227Z,62.79
2023-04-05T04:48:48.540Z,62.85
2023-04-05T04:51:49.307Z,62.39
2023-04-05T04:54:39.231Z,62.28
2023-04-05T04:57:26.329Z,63.67
2023-04-05T05:00:14.213Z,62.62
2023-04-05T05:03:02.162Z,62.97
2023-04-05T05:05:49.015Z,63.48
2023-04-05T05:08:39.829Z,63.17
2023-04-05T05:11:27.853Z,63.16
2023-04-05T05:14:15.025Z,63.53
2023-04-05T05:17:01.891Z,62.53
2023-04-05T05:19:50.180Z,62.95
2023-04-05T05:22:37.321Z,63.30
2023-04-05T05:25:26.080Z,62.62
2023-04-05T05:28:13.101Z,63.36
2023-04-05T05:31:00.254Z,62.60
2023-04-05T05:33:47.091Z,62.68
2023-04-05T05:36:34.107Z,63.29
2023-04-05T05:39:20.984Z,63.80
2023-04-05T05:42:08.193Z,63.72
2023-04-05T05:44:55.148Z,63.04
2023-04-05T05:47:42.226Z,64.00
2023-04-05T05:50:29.866Z,64.34
2023-04-05T05:53:16.929Z,63.71
2023-04-05T05:56:03.882Z,63.17
2023-04-05T05:58:51.212Z,63.59
2023-04-05T06:01:38.068Z,63.64
2023-04-05T06:04:25.371Z,63.24
2023-04-05T06:07:12.330Z,63.27
2023-04-05T06:09:59.331Z,63.83
2023-04-05T06:12:46.155Z,64.36
2023-04-05T06:15:33.652Z,64.02
2023-04-05T06:18:20.578Z,63.97
2023-04-05T06:21:08.010Z,64.04
2023-04-05T06:23:55.118Z,64.58
2023-04-05T06:26:43.629Z,64.76
2023-04-05T06:29:30.575Z,63.79
2023-04-05T06:32:17.737Z,64.13
2023-04-05T06:35:04.785Z,63.90
2023-04-05T06:37:52.322Z,63.78
2023-04-05T06:40:40.504Z,64.71
2023-04-05T06:43:28.667Z,64.05
2023-04-05T06:46:19.503Z,64.47
2023-04-05T06:49:06.740Z,64.40
2023-04-05T06:51:53.621Z,64.17
2023-04-05T06:54:40.606Z,63.90
2023-04-05T06:57:27.466Z,64.11
2023-04-05T07:00:15.372Z,64.50
2023-04-05T07:03:02.596Z,64.98
2023-04-05T07:05:49.657Z,65.09
2023-04-05T07:08:36.457Z,64.77
2023-04-05T07:11:23.450Z,65.31
2023-04-05T07:14:10.342Z,64.54
2023-04-05T07:16:57.236Z,64.37
2023-04-05T07:19:44.041Z,65.28
2023-04-05T07:22:30.923Z,64.92
2023-04-05T07:25:17.812Z,64.98
2023-04-05T07:28:08.156Z,65.46
2023-04-05T07:30:55.127Z,65.59
2023-04-05T07:33:42.462Z,65.80
2023-04-05T07:36:29.501Z,65.61
2023-04-05T07:39:17.695Z,65.10
2023-04-05T07:42:04.622Z,65.03
2023-04-05T07:44:51.604Z,65.60
2023-04-05T07:47:39.107Z,66.09
2023-04-05T07:50:26.720Z,65.52
2023-04-05T07:53:13.605Z,65.39
2023-04-05T07:56:00.510Z,65.48
2023-04-05T07:58:47.398Z,66.23
2023-04-05T08:01:34.341Z,65.81
2023-04-05T08:04:21.173Z,65.76
2023-04-05T08:07:08.074Z,66.46
2023-04-05T08:09:56.016Z,65.92
2023-04-05T08:12:43.379Z,66.23
2023-04-05T08:15:30.761Z,65.77
2023-04-05T08:18:17.933Z,66.42
2023-04-05T08:21:04.797Z,66.16
2023-04-05T08:23:51.738Z,66.36
2023-04-05T08:26:38.585Z,66.22
2023-04-05T08:29:25.555Z,65.52
2023-04-05T08:32:12.402Z,66.69
2023-04-05T08:34:59.317Z,66.24
2023-04-05T08:37:46.303Z,66.33
2023-04-05T08:40:33.516Z,65.98
2023-04-05T08:43:47.121Z,66.23
2023-04-05T08:46:38.424Z,66.11
2023-04-05T08:49:28.765Z,66.36
2023-04-05T08:52:15.795Z,65.87
2023-04-05T08:55:02.652Z,65.79
2023-04-05T08:57:52.763Z,65.87
2023-04-05T09:00:20.120Z,65.33
2023-04-05T09:02:56.866Z,65.09
2023-04-05T09:05:25.934Z,64.98
2023-04-05T09:07:53.157Z,65.56
2023-04-05T09:10:21.391Z,64.42
2023-04-05T09:12:50.348Z,64.50
2023-04-05T09:15:21.720Z,65.02
2023-04-05T09:17:48.757Z,64.89
2023-04-05T09:20:15.766Z,64.48
2023-04-05T09:22:45.554Z,64.21
2023-04-05T09:25:31.426Z,62.85
2023-04-05T09:27:59.541Z,62.80
2023-04-05T09:30:28.138Z,62.50
2023-04-05T09:32:56.044Z,62.12
2023-04-05T09:35:25.260Z,61.64
2023-04-05T09:37:53.662Z,61.96
2023-04-05T09:40:21.570Z,61.38
2023-04-05T09:42:49.064Z,60.65
2023-04-05T09:45:18.437Z,60.73
2023-04-05T09:47:58.358Z,60.35
2023-04-05T09:50:25.511Z,60.80
2023-04-05T09:53:10.033Z,59.69
2023-04-05T09:55:37.085Z,59.40
2023-04-05T09:58:04.129Z,60.30
2023-04-05T10:00:34.292Z,58.72
2023-04-05T10:03:01.386Z,59.03
2023-04-05T10:05:29.303Z,58.46
2023-04-05T10:07:57.070Z,58.92
2023-04-05T10:10:25.121Z,58.92
2023-04-05T10:12:53.771Z,57.33
2023-04-05T10:15:21.115Z,56.97
2023-04-05T10:18:08.589Z,56.93
2023-04-05T10:20:40.354Z,55.80
2023-04-05T10:23:10.462Z,55.64
2023-04-05T10:26:00.873Z,55.34
2023-04-05T10:28:36.335Z,54.99
2023-04-05T10:31:24.023Z,55.27
2023-04-05T10:34:09.518Z,54.48
2023-04-05T10:36:51.182Z,53.97
2023-04-05T10:39:50.771Z,53.48
2023-04-05T10:42:26.430Z,53.51
2023-04-05T10:45:00.439Z,52.87
2023-04-05T10:47:28.892Z,52.42
2023-04-05T10:49:59.819Z,52.00
2023-04-05T10:52:28.742Z,52.09
2023-04-05T10:55:00.023Z,51.29
2023-04-05T10:57:27.825Z,51.39
2023-04-05T10:59:55.508Z,50.94
2023-04-05T11:02:23.059Z,50.76
2023-04-05T11:04:57.143Z,50.33
2023-04-05T11:07:24.506Z,49.50
2023-04-05T11:09:53.596Z,49.75
2023-04-05T11:12:20.897Z,48.95
2023-04-05T11:14:47.768Z,48.14
2023-04-05T11:17:28.567Z,47.98
2023-04-05T11:20:04.165Z,47.64
2023-04-05T11:22:31.559Z,46.68
2023-04-05T11:25:02.844Z,46.50
2023-04-05T11:27:32.380Z,45.83
2023-04-05T11:30:01.074Z,46.12
2023-04-05T11:32:48.236Z,46.10
2023-04-05T11:35:23.367Z,45.50
2023-04-05T11:38:05.629Z,45.38
2023-04-05T11:40:37.389Z,44.83
2023-04-05T11:43:10.284Z,44.21
2023-04-05T11:45:38.852Z,43.77
2023-04-05T11:48:13.770Z,44.55
2023-04-05T11:50:42.204Z,43.94
2023-04-05T11:53:17.163Z,43.92
2023-04-05T11:55:47.010Z,42.86
2023-04-05T11:58:24.629Z,42.81
2023-04-05T12:00:58.760Z,43.67
2023-04-05T12:03:29.481Z,43.78
2023-04-05T12:05:59.424Z,42.80
2023-04-05T12:08:41.264Z,44.17
2023-04-05T12:11:10.723Z,42.93
2023-04-05T12:13:38.829Z,43.43
2023-04-05T12:16:08.011Z,43.45
2023-04-05T12:18:37.098Z,42.33
2023-04-05T12:21:07.630Z,41.95
2023-04-05T12:23:35.811Z,41.79
2023-04-05T12:26:04.320Z,41.89
2023-04-05T12:28:53.556Z,42.33
2023-04-05T12:31:41.462Z,42.12
2023-04-05T12:34:09.497Z,41.27
2023-04-05T12:36:37.460Z,41.39
2023-04-05T12:39:08.612Z,41.02
2023-04-05T12:41:37.231Z,41.46
2023-04-05T12:44:30.962Z,42.08
2023-04-05T12:47:05.347Z,41.35
2023-04-05T12:49:37.816Z,40.89
2023-04-05T12:52:05.532Z,40.44
2023-04-05T12:54:34.127Z,41.35
2023-04-05T12:57:04.530Z,40.12
2023-04-05T12:59:31.669Z,40.55
2023-04-05T13:01:58.821Z,40.62
2023-04-05T13:04:26.945Z,40.19
2023-04-05T13:06:55.109Z,39.30
2023-04-05T13:09:22.314Z,39.24
2023-04-05T13:11:50.501Z,38.76
2023-04-05T13:14:18.063Z,39.26
2023-04-05T13:16:45.113Z,39.79
2023-04-05T13:19:12.012Z,39.56
2023-04-05T13:21:39.463Z,38.82
2023-04-05T13:24:06.682Z,38.63
2023-04-05T13:26:33.726Z,38.61
2023-04-05T13:29:00.820Z,39.24
2023-04-05T13:31:27.761Z,39.07
2023-04-05T13:33:54.858Z,38.72
2023-04-05T13:36:21.854Z,38.62
2023-04-05T13:38:48.780Z,38.50
2023-04-05T13:41:16.106Z,38.06
2023-04-05T13:43:43.194Z,37.80
2023-04-05T13:46:10.723Z,38.51
2023-04-05T13:48:38.719Z,38.02
2023-04-05T13:51:05.894Z,38.05
2023-04-05T13:53:32.918Z,36.98
2023-04-05T13:55:59.830Z,37.77
2023-04-05T13:58:26.778Z,37.45
2023-04-05T14:00:53.866Z,37.83
2023-04-05T14:03:20.862Z,37.77
2023-04-05T14:05:50.731Z,37.65
2023-04-05T14:08:18.863Z,36.92
2023-04-05T14:10:46.041Z,37.13
2023-04-05T14:13:16.200Z,37.46
2023-04-05T14:15:43.908Z,36.31
2023-04-05T14:18:11.274Z,36.52
2023-04-05T14:20:38.707Z,37.39
2023-04-05T14:23:06.432Z,36.54
2023-04-05T14:25:33.446Z,36.74
2023-04-05T14:28:00.448Z,36.40
2023-04-05T14:30:27.478Z,36.37
2023-04-05T14:32:54.449Z,37.45
2023-04-05T14:35:21.506Z,36.27
2023-04-05T14:37:48.544Z,37.35
2023-04-05T14:40:15.573Z,36.71
2023-04-05T14:42:49.045Z,36.47
2023-04-05T14:45:17.741Z,36.54
2023-04-05T14:47:44.857Z,36.30
2023-04-05T14:50:11.897Z,36.96
2023-04-05T14:52:40.009Z,36.92
2023-04-05T14:55:07.285Z,37.55
2023-04-05T14:57:34.328Z,37.89
2023-04-05T15:00:01.350Z,37.17
2023-04-05T15:02:28.911Z,35.83
2023-04-05T15:04:56.281Z,36.13
2023-04-05T15:07:23.459Z,37.09
2023-04-05T15:09:51.523Z,36.87
2023-04-05T15:12:19.942Z,37.58
2023-04-05T15:14:48.659Z,36.99
2023-04-05T15:17:15.657Z,37.37
2023-04-05T15:19:43.077Z,37.97
2023-04-05T15:22:10.098Z,37.16
2023-04-05T15:24:38.133Z,37.28
2023-04-05T15:27:05.087Z,38.35
2023-04-05T15:29:32.897Z,37.52
2023-04-05T15:32:00.758Z,37.76
2023-04-05T15:34:28.294Z,38.36
2023-04-05T15:36:56.001Z,38.04
2023-04-05T15:39:23.607Z,38.49
2023-04-05T15:41:51.339Z,37.91
2023-04-05T15:44:18.363Z,37.67
2023-04-05T15:46:45.440Z,38.58
2023-04-05T15:49:14.175Z,38.70
2023-04-05T15:51:42.432Z,37.70
2023-04-05T15:54:09.826Z,38.68
2023-04-05T15:56:37.839Z,38.26
2023-04-05T15:59:05.360Z,38.15
2023-04-05T16:01:32.744Z,38.69
2023-04-05T16:03:59.946Z,38.90
2023-04-05T16:06:29.554Z,39.15
2023-04-05T16:08:56.855Z,38.41
2023-04-05T16:11:24.602Z,39.03
2023-04-05T16:13:53.202Z,38.99
2023-04-05T16:16:29.960Z,39.64
2023-04-05T16:19:06.182Z,39.25
2023-04-05T16:21:33.241Z,39.28
2023-04-05T16:24:04.053Z,39.21
2023-04-05T16:26:31.305Z,38.95
2023-04-05T16:28:58.960Z,39.00
2023-04-05T16:31:26.183Z,39.51
2023-04-05T16:33:53.919Z,39.69
2023-04-05T16:36:21.202Z,39.80
2023-04-05T16:38:48.103Z,39.84
2023-04-05T16:41:15.500Z,40.07
2023-04-05T16:43:42.419Z,40.08
2023-04-05T16:46:09.362Z,40.03
2023-04-05T16:48:36.431Z,40.04
2023-04-05T16:51:05.707Z,39.51
2023-04-05T16:53:33.900Z,39.68
2023-04-05T16:56:01.077Z,40.13
2023-04-05T16:58:28.143Z,39.79
2023-04-05T17:00:58.928Z,39.78
2023-04-05T17:03:26.591Z,39.89
2023-04-05T17:05:53.876Z,40.13
2023-04-05T17:08:21.026Z,40.32
2023-04-05T17:10:48.248Z,40.42
2023-04-05T17:13:15.496Z,40.21
2023-04-05T17:15:42.535Z,40.46
2023-04-05T17:18:11.541Z,40.48
2023-04-05T17:20:38.767Z,40.69
2023-04-05T17:23:05.775Z,40.57
2023-04-05T17:25:32.986Z,40.94
2023-04-05T17:28:00.086Z,40.57
2023-04-05T17:30:26.990Z,40.65
2023-04-05T17:32:54.043Z,40.66
2023-04-05T17:35:21.070Z,41.19
2023-04-05T17:37:48.146Z,40.42
2023-04-05T17:40:16.366Z,41.09
2023-04-05T17:42:43.378Z,41.08
2023-04-05T17:45:11.383Z,40.84
2023-04-05T17:47:38.496Z,41.28
2023-04-05T17:50:06.184Z,41.47
2023-04-05T17:52:33.103Z,41.39
2023-04-05T17:55:00.247Z,41.62
2023-04-05T17:57:27.217Z,41.42
2023-04-05T17:59:54.128Z,41.90
2023-04-05T18:02:21.416Z,41.70
2023-04-05T18:04:48.695Z,42.25
2023-04-05T18:07:15.691Z,42.39
2023-04-05T18:09:42.728Z,42.02
2023-04-05T18:12:10.136Z,42.59
2023-04-05T18:14:37.122Z,42.31
2023-04-05T18:17:07.929Z,42.96
2023-04-05T18:19:34.966Z,42.78
2023-04-05T18:22:02.019Z,42.79
2023-04-05T18:24:29.664Z,43.16
2023-04-05T18:26:57.470Z,43.27
2023-04-05T18:29:29.426Z,42.17
2023-04-05T18:31:56.946Z,43.10
2023-04-05T18:34:24.274Z,43.12
2023-04-05T18:36:51.398Z,43.32
2023-04-05T18:39:20.150Z,43.01
2023-04-05T18:41:47.338Z,43.47
2023-04-05T18:44:14.567Z,42.42
2023-04-05T18:46:42.120Z,42.83
2023-04-05T18:49:09.208Z,43.66
2023-04-05T18:51:36.371Z,43.58
2023-04-05T18:54:03.707Z,42.24
2023-04-05T18:56:30.966Z,42.99
2023-04-05T18:58:58.271Z,43.44
2023-04-05T19:01:25.441Z,43.90
2023-04-05T19:03:52.402Z,42.69
2023-04-05T19:06:19.344Z,43.91
2023-04-05T19:08:48.037Z,43.91
2023-04-05T19:11:15.493Z,42.55
2023-04-05T19:13:42.526Z,42.70
2023-04-05T19:16:09.775Z,43.16
2023-04-05T19:18:36.994Z,43.30
2023-04-05T19:21:04.541Z,43.93
2023-04-05T19:23:31.734Z,42.63
2023-04-05T19:25:58.872Z,44.00
2023-04-05T19:28:27.164Z,43.68
2023-04-05T19:30:54.831Z,43.32
2023-04-05T19:33:22.134Z,44.00
2023-04-05T19:35:49.383Z,43.04
2023-04-05T19:38:16.519Z,42.76
2023-04-05T19:40:43.560Z,43.17
2023-04-05T19:43:11.564Z,43.81
2023-04-05T19:45:39.055Z,43.67
2023-04-05T19:48:31.657Z,43.20
2023-04-05T19:51:02.228Z,43.83
2023-04-05T19:53:49.571Z,43.43
2023-04-05T19:56:26.435Z,43.58
2023-04-05T19:59:02.966Z,43.78
2023-04-05T20:01:35.672Z,44.64
2023-04-05T20:04:10.321Z,44.73
2023-04-05T20:06:37.992Z,44.43
2023-04-05T20:09:07.585Z,43.43
2023-04-05T20:11:35.012Z,44.56
2023-04-05T20:14:02.866Z,44.30
2023-04-05T20:16:34.955Z,43.67
2023-04-05T20:19:10.105Z,44.84
2023-04-05T20:21:38.219Z,43.86
2023-04-05T20:24:09.389Z,44.46
2023-04-05T20:26:36.494Z,44.20
2023-04-05T20:29:08.033Z,44.74
2023-04-05T20:31:39.685Z,44.70
2023-04-05T20:34:13.934Z,44.56
2023-04-05T20:36:52.199Z,44.55
2023-04-05T20:39:19.305Z,45.28
2023-04-05T20:41:47.120Z,44.46
2023-04-05T20:44:14.357Z,44.36
2023-04-05T20:46:41.774Z,45.41
2023-04-05T20:49:09.322Z,44.82
2023-04-05T20:51:36.539Z,45.65
2023-04-05T20:54:04.071Z,45.74
2023-04-05T20:56:31.347Z,45.56
2023-04-05T20:58:58.477Z,45.66
2023-04-05T21:01:25.589Z,44.98
2023-04-05T21:03:53.447Z,45.42
2023-04-05T21:06:20.554Z,46.04
2023-04-05T21:08:47.546Z,45.67
2023-04-05T21:11:14.546Z,45.75
2023-04-05T21:13:41.748Z,45.42
2023-04-05T21:16:09.648Z,46.11
2023-04-05T21:18:36.975Z,45.92
2023-04-05T21:21:04.528Z,45.97
2023-04-05T21:23:33.496Z,46.17
2023-04-05T21:26:01.226Z,46.38
2023-04-05T21:28:28.175Z,46.53
2023-04-05T21:30:55.236Z,46.64
2023-04-05T21:33:22.394Z,46.71
2023-04-05T21:35:50.797Z,46.70
2023-04-05T21:38:18.279Z,46.94
2023-04-05T21:40:45.265Z,46.45
2023-04-05T21:43:13.226Z,47.16
2023-04-05T21:45:40.306Z,47.24
2023-04-05T21:48:07.772Z,46.96
2023-04-05T21:50:35.453Z,47.21
2023-04-05T21:53:02.480Z,47.08
2023-04-05T21:55:29.609Z,47.06
2023-04-05T21:57:56.914Z,47.12
2023-04-05T22:00:23.965Z,47.12
2023-04-05T22:02:51.122Z,47.58
2023-04-05T22:07:48.380Z,47.62
2023-04-05T22:10:15.614Z,47.76
2023-04-05T22:12:42.603Z,47.97
2023-04-05T22:15:10.164Z,48.33
2023-04-05T22:17:37.221Z,48.33
2023-04-05T22:20:04.649Z,48.22
2023-04-05T22:22:31.616Z,48.14
2023-04-05T22:24:58.563Z,48.38
2023-04-05T22:27:25.859Z,48.46
2023-04-05T22:29:54.476Z,47.89
2023-04-05T22:32:21.500Z,48.55
2023-04-05T22:34:48.745Z,48.82
2023-04-05T22:37:15.778Z,48.74
2023-04-05T22:39:42.902Z,48.55
2023-04-05T22:42:09.889Z,48.92
2023-04-05T22:44:36.951Z,48.84
2023-04-05T22:47:03.984Z,48.99
2023-04-05T22:49:31.133Z,49.25
2023-04-05T22:51:58.150Z,49.30
2023-04-05T22:54:25.104Z,49.22
2023-04-05T22:56:52.285Z,49.33
2023-04-05T22:59:19.278Z,49.05
2023-04-05T23:01:46.531Z,49.38
2023-04-05T23:04:13.798Z,49.62
2023-04-05T23:06:41.148Z,49.30
2023-04-05T23:09:09.031Z,49.40
2023-04-05T23:11:36.258Z,49.28
2023-04-05T23:14:03.321Z,50.08
2023-04-05T23:16:30.726Z,49.37
2023-04-05T23:18:57.956Z,49.38
2023-04-05T23:21:24.978Z,49.72
2023-04-05T23:23:51.943Z,49.61
2023-04-05T23:26:18.957Z,50.11
2023-04-05T23:28:45.978Z,49.84
2023-04-05T23:31:12.916Z,49.98
2023-04-05T23:33:40.075Z,50.10
2023-04-05T23:36:07.824Z,49.90
2023-04-05T23:38:34.908Z,50.06
2023-04-05T23:41:02.110Z,50.11
2023-04-05T23:43:29.049Z,50.60
2023-04-05T23:45:56.430Z,50.57
2023-04-05T23:48:23.402Z,50.68
2023-04-05T23:50:51.256Z,50.75
2023-04-05T23:53:18.269Z,50.75
2023-04-05T23:55:45.718Z,50.13
2023-04-05T23:58:12.763Z,50.13
